sensor_id;sensor_type;location;lat;lon;timestamp;P1;durP1;ratioP1;P2;durP2;ratioP2
78740;SDS011;68062;48.726;9.370;2023-04-03T00:00:46;4.93;;;3.17;;
78740;SDS011;68062;48.726;9.370;2023-04-03T00:03:15;3.87;;;3.10;;
78740;SDS011;68062;48.726;9.370;2023-04-03T00:05:42;5.83;;;2.63;;
78740;SDS011;68062;48.726;9.370;2023-04-03T00:08:09;3.60;;;3.17;;
78740;SDS011;68062;48.726;9.370;2023-04-03T00:10:36;3.50;;;3.30;;
78740;SDS011;68062;48.726;9.370;2023-04-03T00:13:06;4.63;;;3.17;;
78740;SDS011;68062;48.726;9.370;2023-04-03T00:15:34;3.10;;;2.97;;
78740;SDS011;68062;48.726;9.370;2023-04-03T00:18:02;4.17;;;3.30;;
78740;SDS011;68062;48.726;9.370;2023-04-03T00:20:29;5.63;;;3.13;;
78740;SDS011;68062;48.726;9.370;2023-04-03T00:22:58;4.87;;;3.13;;
78740;SDS011;68062;48.726;9.370;2023-04-03T00:25:25;3.80;;;3.50;;
78740;SDS011;68062;48.726;9.370;2023-04-03T00:27:52;3.30;;;2.63;;
78740;SDS011;68062;48.726;9.370;2023-04-03T00:30:20;4.47;;;3.13;;
78740;SDS011;68062;48.726;9.370;2023-04-03T00:32:48;3.50;;;2.97;;
78740;SDS011;68062;48.726;9.370;2023-04-03T00:35:16;3.57;;;3.07;;
78740;SDS011;68062;48.726;9.370;2023-04-03T00:37:45;5.40;;;2.73;;
78740;SDS011;68062;48.726;9.370;2023-04-03T00:40:13;3.27;;;2.80;;
78740;SDS011;68062;48.726;9.370;2023-04-03T00:42:42;7.30;;;2.83;;
78740;SDS011;68062;48.726;9.370;2023-04-03T00:45:25;3.63;;;2.90;;
78740;SDS011;68062;48.726;9.370;2023-04-03T00:47:56;4.47;;;3.00;;
78740;SDS011;68062;48.726;9.370;2023-04-03T00:50:25;2.87;;;2.70;;
78740;SDS011;68062;48.726;9.370;2023-04-03T00:52:52;3.70;;;2.83;;
78740;SDS011;68062;48.726;9.370;2023-04-03T00:55:19;5.60;;;2.90;;
78740;SDS011;68062;48.726;9.370;2023-04-03T00:57:48;4.83;;;3.20;;
78740;SDS011;68062;48.726;9.370;2023-04-03T01:00:16;3.97;;;2.93;;
78740;SDS011;68062;48.726;9.370;2023-04-03T01:02:48;5.23;;;2.70;;
78740;SDS011;68062;48.726;9.370;2023-04-03T01:05:16;3.33;;;2.77;;
78740;SDS011;68062;48.726;9.370;2023-04-03T01:07:44;2.83;;;2.60;;
78740;SDS011;68062;48.726;9.370;2023-04-03T01:10:14;4.30;;;3.10;;
78740;SDS011;68062;48.726;9.370;2023-04-03T01:12:45;4.63;;;2.80;;
78740;SDS011;68062;48.726;9.370;2023-04-03T01:15:14;3.80;;;2.97;;
78740;SDS011;68062;48.726;9.370;2023-04-03T01:17:44;5.03;;;3.50;;
78740;SDS011;68062;48.726;9.370;2023-04-03T01:23:13;5.20;;;3.30;;
78740;SDS011;68062;48.726;9.370;2023-04-03T01:25:51;4.93;;;2.97;;
78740;SDS011;68062;48.726;9.370;2023-04-03T01:28:21;3.17;;;2.97;;
78740;SDS011;68062;48.726;9.370;2023-04-03T01:30:50;3.77;;;2.80;;
78740;SDS011;68062;48.726;9.370;2023-04-03T01:33:25;4.00;;;3.00;;
78740;SDS011;68062;48.726;9.370;2023-04-03T01:35:52;3.10;;;2.57;;
78740;SDS011;68062;48.726;9.370;2023-04-03T01:38:18;2.97;;;2.77;;
78740;SDS011;68062;48.726;9.370;2023-04-03T01:40:45;3.93;;;2.93;;
78740;SDS011;68062;48.726;9.370;2023-04-03T01:43:12;3.30;;;3.10;;
78740;SDS011;68062;48.726;9.370;2023-04-03T01:45:39;4.43;;;2.90;;
78740;SDS011;68062;48.726;9.370;2023-04-03T01:48:06;3.00;;;2.63;;
78740;SDS011;68062;48.726;9.370;2023-04-03T01:50:34;3.00;;;2.80;;
78740;SDS011;68062;48.726;9.370;2023-04-03T01:53:01;4.73;;;3.77;;
78740;SDS011;68062;48.726;9.370;2023-04-03T01:55:27;5.57;;;3.10;;
78740;SDS011;68062;48.726;9.370;2023-04-03T01:57:54;4.13;;;3.40;;
78740;SDS011;68062;48.726;9.370;2023-04-03T02:00:21;4.27;;;3.27;;
78740;SDS011;68062;48.726;9.370;2023-04-03T02:02:49;3.90;;;3.70;;
78740;SDS011;68062;48.726;9.370;2023-04-03T02:05:15;4.90;;;3.23;;
78740;SDS011;68062;48.726;9.370;2023-04-03T02:07:43;4.77;;;2.50;;
78740;SDS011;68062;48.726;9.370;2023-04-03T02:10:10;3.40;;;3.20;;
78740;SDS011;68062;48.726;9.370;2023-04-03T02:12:37;3.83;;;2.73;;
78740;SDS011;68062;48.726;9.370;2023-04-03T02:15:04;3.27;;;3.07;;
78740;SDS011;68062;48.726;9.370;2023-04-03T02:17:32;4.30;;;3.23;;
78740;SDS011;68062;48.726;9.370;2023-04-03T02:19:58;4.00;;;3.40;;
78740;SDS011;68062;48.726;9.370;2023-04-03T02:22:25;2.77;;;2.57;;
78740;SDS011;68062;48.726;9.370;2023-04-03T02:24:53;3.90;;;2.83;;
78740;SDS011;68062;48.726;9.370;2023-04-03T02:27:20;3.10;;;2.90;;
78740;SDS011;68062;48.726;9.370;2023-04-03T02:29:47;3.60;;;2.90;;
78740;SDS011;68062;48.726;9.370;2023-04-03T02:32:14;2.93;;;2.73;;
78740;SDS011;68062;48.726;9.370;2023-04-03T02:34:42;3.47;;;2.97;;
78740;SDS011;68062;48.726;9.370;2023-04-03T02:37:11;2.77;;;2.60;;
78740;SDS011;68062;48.726;9.370;2023-04-03T02:39:39;3.27;;;3.07;;
78740;SDS011;68062;48.726;9.370;2023-04-03T02:42:07;4.93;;;3.00;;
78740;SDS011;68062;48.726;9.370;2023-04-03T02:44:34;4.00;;;2.90;;
78740;SDS011;68062;48.726;9.370;2023-04-03T02:47:01;5.80;;;3.10;;
78740;SDS011;68062;48.726;9.370;2023-04-03T02:49:28;3.10;;;2.30;;
78740;SDS011;68062;48.726;9.370;2023-04-03T02:51:54;2.50;;;2.30;;
78740;SDS011;68062;48.726;9.370;2023-04-03T02:54:21;2.40;;;2.20;;
78740;SDS011;68062;48.726;9.370;2023-04-03T02:56:52;3.57;;;2.53;;
78740;SDS011;68062;48.726;9.370;2023-04-03T02:59:21;3.43;;;2.70;;
78740;SDS011;68062;48.726;9.370;2023-04-03T03:01:48;2.50;;;2.30;;
78740;SDS011;68062;48.726;9.370;2023-04-03T03:04:15;2.90;;;2.70;;
78740;SDS011;68062;48.726;9.370;2023-04-03T03:06:41;4.57;;;2.63;;
78740;SDS011;68062;48.726;9.370;2023-04-03T03:09:08;4.97;;;2.80;;
78740;SDS011;68062;48.726;9.370;2023-04-03T03:11:35;2.50;;;2.33;;
78740;SDS011;68062;48.726;9.370;2023-04-03T03:14:02;3.67;;;3.20;;
78740;SDS011;68062;48.726;9.370;2023-04-03T03:16:30;4.63;;;2.50;;
78740;SDS011;68062;48.726;9.370;2023-04-03T03:18:57;3.03;;;2.77;;
78740;SDS011;68062;48.726;9.370;2023-04-03T03:21:23;6.20;;;2.97;;
78740;SDS011;68062;48.726;9.370;2023-04-03T03:23:50;3.40;;;2.87;;
78740;SDS011;68062;48.726;9.370;2023-04-03T03:26:17;3.30;;;2.83;;
78740;SDS011;68062;48.726;9.370;2023-04-03T03:28:43;3.10;;;2.80;;
78740;SDS011;68062;48.726;9.370;2023-04-03T03:31:11;3.13;;;2.80;;
78740;SDS011;68062;48.726;9.370;2023-04-03T03:33:40;3.67;;;2.73;;
78740;SDS011;68062;48.726;9.370;2023-04-03T03:36:07;6.13;;;2.80;;
78740;SDS011;68062;48.726;9.370;2023-04-03T03:38:35;2.37;;;2.27;;
78740;SDS011;68062;48.726;9.370;2023-04-03T03:41:02;4.20;;;2.70;;
78740;SDS011;68062;48.726;9.370;2023-04-03T03:43:31;7.17;;;2.90;;
78740;SDS011;68062;48.726;9.370;2023-04-03T03:45:58;3.30;;;3.07;;
78740;SDS011;68062;48.726;9.370;2023-04-03T03:48:26;3.40;;;2.63;;
78740;SDS011;68062;48.726;9.370;2023-04-03T03:50:57;3.10;;;2.90;;
78740;SDS011;68062;48.726;9.370;2023-04-03T03:53:28;4.20;;;3.10;;
78740;SDS011;68062;48.726;9.370;2023-04-03T03:56:00;3.17;;;2.83;;
78740;SDS011;68062;48.726;9.370;2023-04-03T03:58:29;3.80;;;3.63;;
78740;SDS011;68062;48.726;9.370;2023-04-03T04:00:56;4.17;;;2.97;;
78740;SDS011;68062;48.726;9.370;2023-04-03T04:03:26;3.60;;;2.70;;
78740;SDS011;68062;48.726;9.370;2023-04-03T04:05:54;5.03;;;4.03;;
78740;SDS011;68062;48.726;9.370;2023-04-03T04:08:23;2.90;;;2.70;;
78740;SDS011;68062;48.726;9.370;2023-04-03T04:10:51;4.00;;;3.13;;
78740;SDS011;68062;48.726;9.370;2023-04-03T04:13:19;2.80;;;2.60;;
78740;SDS011;68062;48.726;9.370;2023-04-03T04:15:46;3.20;;;3.10;;
78740;SDS011;68062;48.726;9.370;2023-04-03T04:18:15;5.40;;;3.03;;
78740;SDS011;68062;48.726;9.370;2023-04-03T04:20:46;3.53;;;3.00;;
78740;SDS011;68062;48.726;9.370;2023-04-03T04:23:16;3.03;;;2.53;;
78740;SDS011;68062;48.726;9.370;2023-04-03T04:25:46;4.33;;;2.77;;
78740;SDS011;68062;48.726;9.370;2023-04-03T04:28:14;2.60;;;2.40;;
78740;SDS011;68062;48.726;9.370;2023-04-03T04:30:42;2.60;;;2.40;;
78740;SDS011;68062;48.726;9.370;2023-04-03T04:33:09;2.73;;;2.53;;
78740;SDS011;68062;48.726;9.370;2023-04-03T04:35:38;6.43;;;2.60;;
78740;SDS011;68062;48.726;9.370;2023-04-03T04:38:05;3.00;;;2.33;;
78740;SDS011;68062;48.726;9.370;2023-04-03T04:40:35;5.47;;;2.70;;
78740;SDS011;68062;48.726;9.370;2023-04-03T04:43:03;2.40;;;2.20;;
78740;SDS011;68062;48.726;9.370;2023-04-03T04:45:30;3.30;;;2.47;;
78740;SDS011;68062;48.726;9.370;2023-04-03T04:47:57;3.57;;;2.70;;
78740;SDS011;68062;48.726;9.370;2023-04-03T04:50:24;3.77;;;2.10;;
78740;SDS011;68062;48.726;9.370;2023-04-03T04:52:52;3.47;;;3.10;;
78740;SDS011;68062;48.726;9.370;2023-04-03T04:55:19;2.93;;;2.73;;
78740;SDS011;68062;48.726;9.370;2023-04-03T04:57:48;4.30;;;2.90;;
78740;SDS011;68062;48.726;9.370;2023-04-03T05:00:15;3.50;;;2.47;;
78740;SDS011;68062;48.726;9.370;2023-04-03T05:02:42;3.13;;;2.43;;
78740;SDS011;68062;48.726;9.370;2023-04-03T05:05:09;7.83;;;2.17;;
78740;SDS011;68062;48.726;9.370;2023-04-03T05:07:36;2.60;;;2.00;;
78740;SDS011;68062;48.726;9.370;2023-04-03T05:10:04;2.57;;;2.40;;
78740;SDS011;68062;48.726;9.370;2023-04-03T05:12:33;3.63;;;2.60;;
78740;SDS011;68062;48.726;9.370;2023-04-03T05:15:04;2.30;;;2.20;;
78740;SDS011;68062;48.726;9.370;2023-04-03T05:17:32;2.57;;;2.40;;
78740;SDS011;68062;48.726;9.370;2023-04-03T05:19:59;2.63;;;2.40;;
78740;SDS011;68062;48.726;9.370;2023-04-03T05:22:27;2.00;;;1.90;;
78740;SDS011;68062;48.726;9.370;2023-04-03T05:24:58;2.57;;;2.37;;
78740;SDS011;68062;48.726;9.370;2023-04-03T05:27:25;2.57;;;2.37;;
78740;SDS011;68062;48.726;9.370;2023-04-03T05:29:54;4.40;;;2.33;;
78740;SDS011;68062;48.726;9.370;2023-04-03T05:32:24;4.73;;;2.70;;
78740;SDS011;68062;48.726;9.370;2023-04-03T05:35:01;2.53;;;2.33;;
78740;SDS011;68062;48.726;9.370;2023-04-03T05:37:28;4.57;;;2.40;;
78740;SDS011;68062;48.726;9.370;2023-04-03T05:39:56;2.80;;;2.60;;
78740;SDS011;68062;48.726;9.370;2023-04-03T05:42:23;2.40;;;2.27;;
78740;SDS011;68062;48.726;9.370;2023-04-03T05:44:50;3.30;;;2.30;;
78740;SDS011;68062;48.726;9.370;2023-04-03T05:47:17;2.77;;;2.53;;
78740;SDS011;68062;48.726;9.370;2023-04-03T05:49:46;4.00;;;2.77;;
78740;SDS011;68062;48.726;9.370;2023-04-03T05:52:17;3.00;;;2.60;;
78740;SDS011;68062;48.726;9.370;2023-04-03T05:54:47;2.23;;;2.03;;
78740;SDS011;68062;48.726;9.370;2023-04-03T05:57:19;5.80;;;2.70;;
78740;SDS011;68062;48.726;9.370;2023-04-03T05:59:47;2.77;;;2.40;;
78740;SDS011;68062;48.726;9.370;2023-04-03T06:02:14;3.20;;;2.50;;
78740;SDS011;68062;48.726;9.370;2023-04-03T06:04:42;3.07;;;2.63;;
78740;SDS011;68062;48.726;9.370;2023-04-03T06:07:12;2.47;;;2.27;;
78740;SDS011;68062;48.726;9.370;2023-04-03T06:09:40;4.23;;;2.73;;
78740;SDS011;68062;48.726;9.370;2023-04-03T06:12:08;4.20;;;2.13;;
78740;SDS011;68062;48.726;9.370;2023-04-03T06:14:36;2.60;;;2.13;;
78740;SDS011;68062;48.726;9.370;2023-04-03T06:17:02;3.40;;;2.57;;
78740;SDS011;68062;48.726;9.370;2023-04-03T06:19:29;2.60;;;2.40;;
78740;SDS011;68062;48.726;9.370;2023-04-03T06:21:56;5.70;;;2.33;;
78740;SDS011;68062;48.726;9.370;2023-04-03T06:24:25;3.03;;;2.20;;
78740;SDS011;68062;48.726;9.370;2023-04-03T06:26:52;3.40;;;2.40;;
78740;SDS011;68062;48.726;9.370;2023-04-03T06:29:20;4.50;;;2.77;;
78740;SDS011;68062;48.726;9.370;2023-04-03T06:31:47;2.23;;;2.03;;
78740;SDS011;68062;48.726;9.370;2023-04-03T06:34:14;2.47;;;2.27;;
78740;SDS011;68062;48.726;9.370;2023-04-03T06:36:42;3.13;;;2.17;;
78740;SDS011;68062;48.726;9.370;2023-04-03T06:39:11;2.47;;;2.30;;
78740;SDS011;68062;48.726;9.370;2023-04-03T06:41:42;6.33;;;2.47;;
78740;SDS011;68062;48.726;9.370;2023-04-03T06:44:09;6.10;;;2.43;;
78740;SDS011;68062;48.726;9.370;2023-04-03T06:46:39;2.70;;;2.50;;
78740;SDS011;68062;48.726;9.370;2023-04-03T06:49:06;2.53;;;2.33;;
78740;SDS011;68062;48.726;9.370;2023-04-03T06:51:35;2.87;;;2.40;;
78740;SDS011;68062;48.726;9.370;2023-04-03T06:54:03;2.47;;;2.30;;
78740;SDS011;68062;48.726;9.370;2023-04-03T06:56:32;3.20;;;2.57;;
78740;SDS011;68062;48.726;9.370;2023-04-03T06:59:00;3.40;;;2.07;;
78740;SDS011;68062;48.726;9.370;2023-04-03T07:01:28;3.23;;;2.17;;
78740;SDS011;68062;48.726;9.370;2023-04-03T07:03:56;4.40;;;2.50;;
78740;SDS011;68062;48.726;9.370;2023-04-03T07:06:24;2.33;;;2.10;;
78740;SDS011;68062;48.726;9.370;2023-04-03T07:08:52;2.23;;;1.93;;
78740;SDS011;68062;48.726;9.370;2023-04-03T07:11:20;3.37;;;2.77;;
78740;SDS011;68062;48.726;9.370;2023-04-03T07:13:47;2.57;;;2.37;;
78740;SDS011;68062;48.726;9.370;2023-04-03T07:16:16;3.63;;;2.03;;
78740;SDS011;68062;48.726;9.370;2023-04-03T07:18:43;3.10;;;1.87;;
78740;SDS011;68062;48.726;9.370;2023-04-03T07:21:10;3.17;;;1.93;;
78740;SDS011;68062;48.726;9.370;2023-04-03T07:23:37;2.43;;;1.90;;
78740;SDS011;68062;48.726;9.370;2023-04-03T07:26:05;2.50;;;2.20;;
78740;SDS011;68062;48.726;9.370;2023-04-03T07:28:33;4.00;;;2.43;;
78740;SDS011;68062;48.726;9.370;2023-04-03T07:31:01;2.13;;;1.97;;
78740;SDS011;68062;48.726;9.370;2023-04-03T07:33:31;3.67;;;2.20;;
78740;SDS011;68062;48.726;9.370;2023-04-03T07:35:59;3.17;;;2.97;;
78740;SDS011;68062;48.726;9.370;2023-04-03T07:38:26;2.43;;;1.87;;
78740;SDS011;68062;48.726;9.370;2023-04-03T07:40:55;4.70;;;2.20;;
78740;SDS011;68062;48.726;9.370;2023-04-03T07:43:21;4.07;;;2.77;;
78740;SDS011;68062;48.726;9.370;2023-04-03T07:45:50;4.30;;;3.00;;
78740;SDS011;68062;48.726;9.370;2023-04-03T07:48:17;2.80;;;2.60;;
78740;SDS011;68062;48.726;9.370;2023-04-03T07:50:48;3.10;;;2.40;;
78740;SDS011;68062;48.726;9.370;2023-04-03T07:53:15;3.17;;;2.60;;
78740;SDS011;68062;48.726;9.370;2023-04-03T07:55:42;2.70;;;2.33;;
78740;SDS011;68062;48.726;9.370;2023-04-03T07:58:13;2.90;;;2.73;;
78740;SDS011;68062;48.726;9.370;2023-04-03T08:00:41;2.77;;;2.43;;
78740;SDS011;68062;48.726;9.370;2023-04-03T08:03:09;4.47;;;2.67;;
78740;SDS011;68062;48.726;9.370;2023-04-03T08:05:37;3.07;;;2.30;;
78740;SDS011;68062;48.726;9.370;2023-04-03T08:08:06;3.40;;;2.33;;
78740;SDS011;68062;48.726;9.370;2023-04-03T08:10:34;2.80;;;2.33;;
78740;SDS011;68062;48.726;9.370;2023-04-03T08:13:01;6.63;;;2.47;;
78740;SDS011;68062;48.726;9.370;2023-04-03T08:15:29;3.47;;;2.70;;
78740;SDS011;68062;48.726;9.370;2023-04-03T08:17:56;3.47;;;2.70;;
78740;SDS011;68062;48.726;9.370;2023-04-03T08:20:23;2.60;;;2.40;;
78740;SDS011;68062;48.726;9.370;2023-04-03T08:22:50;2.23;;;2.07;;
78740;SDS011;68062;48.726;9.370;2023-04-03T08:25:19;2.27;;;2.10;;
78740;SDS011;68062;48.726;9.370;2023-04-03T08:27:46;3.60;;;2.47;;
78740;SDS011;68062;48.726;9.370;2023-04-03T08:30:13;3.20;;;2.90;;
78740;SDS011;68062;48.726;9.370;2023-04-03T08:32:40;7.60;;;2.93;;
78740;SDS011;68062;48.726;9.370;2023-04-03T08:35:08;5.17;;;4.13;;
78740;SDS011;68062;48.726;9.370;2023-04-03T08:37:36;4.43;;;2.90;;
78740;SDS011;68062;48.726;9.370;2023-04-03T08:40:03;3.23;;;2.00;;
78740;SDS011;68062;48.726;9.370;2023-04-03T08:42:38;3.50;;;3.00;;
78740;SDS011;68062;48.726;9.370;2023-04-03T08:45:15;2.50;;;2.13;;
78740;SDS011;68062;48.726;9.370;2023-04-03T08:47:47;3.47;;;2.80;;
78740;SDS011;68062;48.726;9.370;2023-04-03T08:50:18;4.20;;;2.40;;
78740;SDS011;68062;48.726;9.370;2023-04-03T08:52:48;3.00;;;2.37;;
78740;SDS011;68062;48.726;9.370;2023-04-03T08:55:22;2.50;;;2.30;;
78740;SDS011;68062;48.726;9.370;2023-04-03T08:57:57;3.30;;;2.73;;
78740;SDS011;68062;48.726;9.370;2023-04-03T09:00:28;3.23;;;2.10;;
78740;SDS011;68062;48.726;9.370;2023-04-03T09:03:01;4.67;;;2.83;;
78740;SDS011;68062;48.726;9.370;2023-04-03T09:05:31;2.93;;;2.53;;
78740;SDS011;68062;48.726;9.370;2023-04-03T09:08:11;3.13;;;2.30;;
78740;SDS011;68062;48.726;9.370;2023-04-03T09:10:45;2.40;;;2.20;;
78740;SDS011;68062;48.726;9.370;2023-04-03T09:13:14;2.50;;;2.23;;
78740;SDS011;68062;48.726;9.370;2023-04-03T09:15:50;4.60;;;2.67;;
78740;SDS011;68062;48.726;9.370;2023-04-03T09:18:19;3.13;;;2.17;;
78740;SDS011;68062;48.726;9.370;2023-04-03T09:20:54;3.17;;;2.80;;
78740;SDS011;68062;48.726;9.370;2023-04-03T09:23:28;3.83;;;2.67;;
78740;SDS011;68062;48.726;9.370;2023-04-03T09:26:01;4.30;;;3.07;;
78740;SDS011;68062;48.726;9.370;2023-04-03T09:28:35;3.33;;;2.03;;
78740;SDS011;68062;48.726;9.370;2023-04-03T09:31:05;3.10;;;2.23;;
78740;SDS011;68062;48.726;9.370;2023-04-03T09:33:45;2.20;;;2.00;;
78740;SDS011;68062;48.726;9.370;2023-04-03T09:36:12;3.73;;;2.00;;
78740;SDS011;68062;48.726;9.370;2023-04-03T09:38:40;1.90;;;1.80;;
78740;SDS011;68062;48.726;9.370;2023-04-03T09:41:12;2.13;;;2.00;;
78740;SDS011;68062;48.726;9.370;2023-04-03T09:43:51;3.47;;;2.17;;
78740;SDS011;68062;48.726;9.370;2023-04-03T09:46:25;1.93;;;1.90;;
78740;SDS011;68062;48.726;9.370;2023-04-03T09:48:55;1.93;;;1.83;;
78740;SDS011;68062;48.726;9.370;2023-04-03T09:51:24;3.60;;;1.70;;
78740;SDS011;68062;48.726;9.370;2023-04-03T09:53:53;3.57;;;1.87;;
78740;SDS011;68062;48.726;9.370;2023-04-03T09:56:22;3.03;;;2.20;;
78740;SDS011;68062;48.726;9.370;2023-04-03T09:59:03;2.70;;;2.10;;
78740;SDS011;68062;48.726;9.370;2023-04-03T10:01:39;1.67;;;1.40;;
78740;SDS011;68062;48.726;9.370;2023-04-03T10:04:09;1.43;;;1.33;;
78740;SDS011;68062;48.726;9.370;2023-04-03T10:06:38;2.33;;;1.90;;
78740;SDS011;68062;48.726;9.370;2023-04-03T10:09:16;4.33;;;2.03;;
78740;SDS011;68062;48.726;9.370;2023-04-03T10:12:00;2.97;;;1.90;;
78740;SDS011;68062;48.726;9.370;2023-04-03T10:14:31;2.73;;;2.30;;
78740;SDS011;68062;48.726;9.370;2023-04-03T10:17:03;1.93;;;1.90;;
78740;SDS011;68062;48.726;9.370;2023-04-03T10:19:44;1.97;;;1.87;;
78740;SDS011;68062;48.726;9.370;2023-04-03T10:22:18;3.33;;;2.20;;
78740;SDS011;68062;48.726;9.370;2023-04-03T10:24:54;2.23;;;1.93;;
78740;SDS011;68062;48.726;9.370;2023-04-03T10:27:37;4.97;;;2.73;;
78740;SDS011;68062;48.726;9.370;2023-04-03T10:30:21;2.30;;;2.10;;
78740;SDS011;68062;48.726;9.370;2023-04-03T10:33:02;2.30;;;1.87;;
78740;SDS011;68062;48.726;9.370;2023-04-03T10:35:44;2.73;;;2.00;;
78740;SDS011;68062;48.726;9.370;2023-04-03T10:38:18;2.50;;;2.30;;
78740;SDS011;68062;48.726;9.370;2023-04-03T10:40:55;2.17;;;2.00;;
78740;SDS011;68062;48.726;9.370;2023-04-03T10:43:29;3.57;;;1.87;;
78740;SDS011;68062;48.726;9.370;2023-04-03T10:46:05;2.17;;;2.00;;
78740;SDS011;68062;48.726;9.370;2023-04-03T10:48:40;2.87;;;1.80;;
78740;SDS011;68062;48.726;9.370;2023-04-03T10:51:19;4.53;;;2.20;;
78740;SDS011;68062;48.726;9.370;2023-04-03T10:53:52;2.20;;;1.93;;
78740;SDS011;68062;48.726;9.370;2023-04-03T10:56:27;2.70;;;1.80;;
78740;SDS011;68062;48.726;9.370;2023-04-03T10:59:01;3.53;;;2.00;;
78740;SDS011;68062;48.726;9.370;2023-04-03T11:01:41;2.57;;;2.37;;
78740;SDS011;68062;48.726;9.370;2023-04-03T11:04:11;5.60;;;2.53;;
78740;SDS011;68062;48.726;9.370;2023-04-03T11:06:39;4.97;;;2.67;;
78740;SDS011;68062;48.726;9.370;2023-04-03T11:09:15;2.30;;;1.90;;
78740;SDS011;68062;48.726;9.370;2023-04-03T11:11:48;1.80;;;1.70;;
78740;SDS011;68062;48.726;9.370;2023-04-03T11:14:22;3.17;;;1.80;;
78740;SDS011;68062;48.726;9.370;2023-04-03T11:17:05;2.30;;;1.90;;
78740;SDS011;68062;48.726;9.370;2023-04-03T11:19:43;1.87;;;1.80;;
78740;SDS011;68062;48.726;9.370;2023-04-03T11:22:16;2.70;;;2.50;;
78740;SDS011;68062;48.726;9.370;2023-04-03T11:24:54;1.70;;;1.60;;
78740;SDS011;68062;48.726;9.370;2023-04-03T11:27:28;1.80;;;1.70;;
78740;SDS011;68062;48.726;9.370;2023-04-03T11:30:04;2.10;;;1.67;;
78740;SDS011;68062;48.726;9.370;2023-04-03T11:32:42;2.73;;;2.20;;
78740;SDS011;68062;48.726;9.370;2023-04-03T11:35:20;2.20;;;1.40;;
78740;SDS011;68062;48.726;9.370;2023-04-03T11:37:49;1.90;;;1.57;;
78740;SDS011;68062;48.726;9.370;2023-04-03T11:40:20;1.57;;;1.47;;
78740;SDS011;68062;48.726;9.370;2023-04-03T11:42:52;8.13;;;2.63;;
78740;SDS011;68062;48.726;9.370;2023-04-03T11:45:25;2.10;;;1.57;;
78740;SDS011;68062;48.726;9.370;2023-04-03T11:48:02;2.37;;;1.23;;
78740;SDS011;68062;48.726;9.370;2023-04-03T11:50:31;3.63;;;1.80;;
78740;SDS011;68062;48.726;9.370;2023-04-03T11:53:25;2.73;;;1.53;;
78740;SDS011;68062;48.726;9.370;2023-04-03T11:56:01;2.57;;;1.80;;
78740;SDS011;68062;48.726;9.370;2023-04-03T12:01:43;2.03;;;1.57;;
78740;SDS011;68062;48.726;9.370;2023-04-03T12:04:13;2.00;;;1.47;;
78740;SDS011;68062;48.726;9.370;2023-04-03T12:06:52;4.67;;;2.27;;
78740;SDS011;68062;48.726;9.370;2023-04-03T12:12:43;2.53;;;1.90;;
78740;SDS011;68062;48.726;9.370;2023-04-03T12:15:38;5.10;;;2.17;;
78740;SDS011;68062;48.726;9.370;2023-04-03T12:18:37;3.03;;;1.60;;
78740;SDS011;68062;48.726;9.370;2023-04-03T12:21:11;3.10;;;1.83;;
78740;SDS011;68062;48.726;9.370;2023-04-03T12:26:27;3.83;;;1.90;;
78740;SDS011;68062;48.726;9.370;2023-04-03T12:28:57;2.30;;;1.77;;
78740;SDS011;68062;48.726;9.370;2023-04-03T12:31:25;2.07;;;1.30;;
78740;SDS011;68062;48.726;9.370;2023-04-03T12:34:10;1.93;;;1.50;;
78740;SDS011;68062;48.726;9.370;2023-04-03T12:36:49;1.60;;;1.50;;
78740;SDS011;68062;48.726;9.370;2023-04-03T12:39:37;5.43;;;2.33;;
78740;SDS011;68062;48.726;9.370;2023-04-03T12:42:17;3.73;;;1.57;;
78740;SDS011;68062;48.726;9.370;2023-04-03T12:45:01;2.50;;;1.97;;
78740;SDS011;68062;48.726;9.370;2023-04-03T12:47:34;1.87;;;1.77;;
78740;SDS011;68062;48.726;9.370;2023-04-03T12:50:03;1.30;;;1.20;;
78740;SDS011;68062;48.726;9.370;2023-04-03T12:52:47;2.33;;;1.97;;
78740;SDS011;68062;48.726;9.370;2023-04-03T12:55:20;1.97;;;1.83;;
78740;SDS011;68062;48.726;9.370;2023-04-03T12:57:48;1.67;;;1.57;;
78740;SDS011;68062;48.726;9.370;2023-04-03T13:00:22;1.63;;;1.53;;
78740;SDS011;68062;48.726;9.370;2023-04-03T13:02:58;1.60;;;1.50;;
78740;SDS011;68062;48.726;9.370;2023-04-03T13:05:25;2.70;;;2.50;;
78740;SDS011;68062;48.726;9.370;2023-04-03T13:07:54;2.27;;;1.77;;
78740;SDS011;68062;48.726;9.370;2023-04-03T13:10:25;2.87;;;2.00;;
78740;SDS011;68062;48.726;9.370;2023-04-03T13:12:53;2.80;;;2.10;;
78740;SDS011;68062;48.726;9.370;2023-04-03T13:15:22;2.67;;;1.60;;
78740;SDS011;68062;48.726;9.370;2023-04-03T13:17:51;2.30;;;1.80;;
78740;SDS011;68062;48.726;9.370;2023-04-03T13:20:20;2.03;;;1.90;;
78740;SDS011;68062;48.726;9.370;2023-04-03T13:22:52;2.93;;;1.83;;
78740;SDS011;68062;48.726;9.370;2023-04-03T13:25:23;1.80;;;1.70;;
78740;SDS011;68062;48.726;9.370;2023-04-03T13:27:54;2.63;;;1.67;;
78740;SDS011;68062;48.726;9.370;2023-04-03T13:30:23;1.90;;;1.80;;
78740;SDS011;68062;48.726;9.370;2023-04-03T13:32:54;2.40;;;2.00;;
78740;SDS011;68062;48.726;9.370;2023-04-03T13:35:26;3.87;;;1.73;;
78740;SDS011;68062;48.726;9.370;2023-04-03T13:37:57;2.50;;;1.87;;
78740;SDS011;68062;48.726;9.370;2023-04-03T13:40:25;2.07;;;1.60;;
78740;SDS011;68062;48.726;9.370;2023-04-03T13:43:01;3.37;;;2.17;;
78740;SDS011;68062;48.726;9.370;2023-04-03T13:45:31;5.07;;;2.30;;
78740;SDS011;68062;48.726;9.370;2023-04-03T13:48:16;2.23;;;1.87;;
78740;SDS011;68062;48.726;9.370;2023-04-03T13:53:31;2.27;;;1.83;;
78740;SDS011;68062;48.726;9.370;2023-04-03T13:56:07;2.10;;;1.90;;
78740;SDS011;68062;48.726;9.370;2023-04-03T13:58:36;2.10;;;1.87;;
78740;SDS011;68062;48.726;9.370;2023-04-03T14:01:09;2.33;;;1.80;;
78740;SDS011;68062;48.726;9.370;2023-04-03T14:03:44;2.57;;;2.23;;
78740;SDS011;68062;48.726;9.370;2023-04-03T14:06:14;2.83;;;1.80;;
78740;SDS011;68062;48.726;9.370;2023-04-03T14:08:44;1.90;;;1.80;;
78740;SDS011;68062;48.726;9.370;2023-04-03T14:11:12;2.77;;;1.70;;
78740;SDS011;68062;48.726;9.370;2023-04-03T14:13:41;2.60;;;1.60;;
78740;SDS011;68062;48.726;9.370;2023-04-03T14:16:11;4.70;;;1.90;;
78740;SDS011;68062;48.726;9.370;2023-04-03T14:18:40;2.80;;;2.07;;
78740;SDS011;68062;48.726;9.370;2023-04-03T14:21:08;3.43;;;1.70;;
78740;SDS011;68062;48.726;9.370;2023-04-03T14:23:37;2.43;;;1.63;;
78740;SDS011;68062;48.726;9.370;2023-04-03T14:26:08;2.67;;;1.97;;
78740;SDS011;68062;48.726;9.370;2023-04-03T14:28:38;1.77;;;1.70;;
78740;SDS011;68062;48.726;9.370;2023-04-03T14:31:06;1.33;;;1.23;;
78740;SDS011;68062;48.726;9.370;2023-04-03T14:33:33;2.07;;;1.70;;
78740;SDS011;68062;48.726;9.370;2023-04-03T14:36:01;2.20;;;1.63;;
78740;SDS011;68062;48.726;9.370;2023-04-03T14:38:29;2.80;;;2.60;;
78740;SDS011;68062;48.726;9.370;2023-04-03T14:40:57;2.00;;;1.87;;
78740;SDS011;68062;48.726;9.370;2023-04-03T14:43:26;2.23;;;1.80;;
78740;SDS011;68062;48.726;9.370;2023-04-03T14:45:53;2.50;;;2.33;;
78740;SDS011;68062;48.726;9.370;2023-04-03T14:48:22;2.40;;;2.20;;
78740;SDS011;68062;48.726;9.370;2023-04-03T14:50:51;2.37;;;2.17;;
78740;SDS011;68062;48.726;9.370;2023-04-03T14:53:19;2.87;;;2.30;;
78740;SDS011;68062;48.726;9.370;2023-04-03T14:55:51;2.37;;;2.10;;
78740;SDS011;68062;48.726;9.370;2023-04-03T14:58:19;3.00;;;1.77;;
78740;SDS011;68062;48.726;9.370;2023-04-03T15:00:48;2.43;;;1.73;;
78740;SDS011;68062;48.726;9.370;2023-04-03T15:03:15;2.37;;;2.17;;
78740;SDS011;68062;48.726;9.370;2023-04-03T15:05:44;5.33;;;2.07;;
78740;SDS011;68062;48.726;9.370;2023-04-03T15:08:15;2.93;;;2.53;;
78740;SDS011;68062;48.726;9.370;2023-04-03T15:10:45;2.37;;;2.17;;
78740;SDS011;68062;48.726;9.370;2023-04-03T15:13:11;2.27;;;1.87;;
78740;SDS011;68062;48.726;9.370;2023-04-03T15:15:39;2.20;;;1.63;;
78740;SDS011;68062;48.726;9.370;2023-04-03T15:18:07;6.23;;;2.30;;
78740;SDS011;68062;48.726;9.370;2023-04-03T15:20:40;1.90;;;1.90;;